Bookmark and Share
Track history (hours):
 

Zim Chicago

Last reported at 2014-Apr-16 23:04 UTC. Time now 2014-Apr-18 20:44 UTC.
Position N 01°15' E 104°06'.

Length 334 m; draft 10.9 m.

Type: Cargo ship. MMSI: 636014223.

NotesDate/timePositionNaut miles runAvg speedWind from/ knotsBaromVisibWave heightAir tempDewpointWater temp
2014-Apr-16 23:04N 01°15' E 104°06'1120.7
2014-Apr-16 22:33N 01°13' E 103°55'5 0.1
2014-Apr-15 10:34N 01°16' E 103°51'2 2.4
2014-Apr-15 09:34N 01°14' E 103°52'4 3.5
2014-Apr-15 08:33N 01°15' E 103°56'  
2014-Apr-11 23:33N 22°19' E 114°06'1 1.1
2014-Apr-11 22:27N 22°20' E 114°07'0 0.0
2014-Apr-11 21:21N 22°20' E 114°07'0 0.0
2014-Apr-11 19:21N 22°20' E 114°07'0 0.0
2014-Apr-11 18:33N 22°20' E 114°07'0 0.0
2014-Apr-11 15:33N 22°20' E 114°07'0 0.0
2014-Apr-11 14:15N 22°20' E 114°07'0 0.1
2014-Apr-11 13:31N 22°20' E 114°07'5 4.8
2014-Apr-11 12:29N 22°21' E 114°02'9 9.2
2014-Apr-11 11:33N 22°25' E 113°53'7 7.3
2014-Apr-11 10:32N 22°32' E 113°51'0 0.1
2014-Apr-11 09:21N 22°32' E 113°51'0 0.0
2014-Apr-11 06:27N 22°32' E 113°51'0 0.0
2014-Apr-11 05:33N 22°32' E 113°51'0 0.0
2014-Apr-11 04:33N 22°32' E 113°51'0 0.0
2014-Apr-11 03:33N 22°32' E 113°51'0 0.0
2014-Apr-11 01:21N 22°32' E 113°51'0 0.0
2014-Apr-10 23:15N 22°32' E 113°51'0 0.0
2014-Apr-10 22:33N 22°32' E 113°51'0 0.0
2014-Apr-10 21:33N 22°32' E 113°51'0 0.0
2014-Apr-10 20:33N 22°32' E 113°51'0 0.0
2014-Apr-10 19:15N 22°32' E 113°51'0 0.0
2014-Apr-10 18:33N 22°32' E 113°51'0 0.0
2014-Apr-10 17:33N 22°32' E 113°51'0 0.0
2014-Apr-10 16:30N 22°32' E 113°51'2 2.6
2014-Apr-10 15:34N 22°29' E 113°51'10 9.0
2014-Apr-10 14:28N 22°21' E 113°57'9 9.7
2014-Apr-10 13:33N 22°18' E 114°06'10 9.4
2014-Apr-10 12:29N 22°10' E 114°12'18216.6
2014-Apr-10 01:33N 22°18' E 117°29'12217.5
2014-Apr-09 18:33N 22°30' E 119°40'1817.6
2014-Apr-09 17:33N 22°31' E 119°59'1717.4
2014-Apr-09 16:33N 22°33' E 120°18'1 1.3
2014-Apr-09 15:32N 22°34' E 120°19'0 0.0
2014-Apr-09 14:32N 22°34' E 120°19'0 0.0
2014-Apr-09 13:32N 22°34' E 120°19'0 0.0
2014-Apr-09 12:32N 22°34' E 120°19'0 0.0
2014-Apr-09 11:20N 22°34' E 120°19'0 0.0
2014-Apr-09 09:20N 22°34' E 120°19'0 0.0
2014-Apr-09 07:32N 22°34' E 120°19'0 0.0
2014-Apr-09 06:14N 22°34' E 120°19'0 0.0
2014-Apr-09 05:32N 22°34' E 120°19'0 0.0
2014-Apr-09 04:32N 22°34' E 120°19'0 0.0
2014-Apr-09 03:32N 22°34' E 120°19'0 0.0
2014-Apr-09 02:26N 22°34' E 120°19'1 1.3
2014-Apr-09 01:33N 22°33' E 120°19'4 4.1
2014-Apr-09 00:33N 22°32' E 120°15'1514.8
2014-Apr-08 23:33N 22°43' E 120°05'  

Dump ship's entire track history

sailing weather and tide predictions

Zim Chicago — A8SI9 — position and weather